Flight Track Log - Related Links

Times and Time Zones

All times are in EDT time to prevent confusion due to time zone crossing. See the KAL1243 flight status page for this flight to view local times or setup timezone preferences in your user account.

Time Position Orientation Groundspeed Altitude Reporting Facility
EDT Latitude Longitude Course Direction KTS MPH feet Rate Location/Type
Tue 02:00:00 AM 36.4186 126.7037 184° South  Level Estimated
Tue 02:01:00 AM 36.3150 126.6959 183° South  Level Estimated
Tue 02:02:00 AM 36.2114 126.6882 183° South  Level Estimated
Tue 02:03:00 AM 36.1078 126.6804 183° South  Level Estimated
Tue 02:04:00 AM 36.0042 126.6727 183° South  Level Estimated
Tue 02:05:00 AM 35.9006 126.6650 183° South  Level Estimated
Tue 02:06:00 AM 35.7970 126.6574 183° South  Level Estimated
Tue 02:07:00 AM 35.6934 126.6497 183° South  Level Estimated
Tue 02:08:00 AM 35.5898 126.6421 183° South  Level Estimated
Tue 02:09:00 AM 35.4861 126.6345 183° South  Level Estimated
Tue 02:10:00 AM 35.3825 126.6269 183° South  Level Estimated
Tue 02:11:00 AM 35.2789 126.6193 183° South  Level Estimated
Tue 02:12:00 AM 35.1753 126.6118 183° South  Level Estimated
Tue 02:13:00 AM 35.0717 126.6042 183° South  Level Estimated
Tue 02:14:00 AM 34.9681 126.5967 183° South  Level Estimated
Tue 02:15:00 AM 34.8644 126.5892 183° South  Level Estimated
Tue 02:16:00 AM 34.7608 126.5817 183° South  Level Estimated
Tue 02:17:00 AM 34.6572 126.5743 183° South  Level Estimated
Tue 02:18:00 AM 34.5536 126.5668 183° South  Level Estimated
Tue 02:19:00 AM 34.4500 126.5594 183° South  Level Estimated
Tue 02:20:00 AM 34.3464 126.5520 183° South  Level Estimated
Tue 02:21:00 AM 34.2427 126.5446 183° South  Level Estimated
Tue 02:22:00 AM 34.1391 126.5373 183° South  Level Estimated
Tue 02:23:00 AM 34.0355 126.5299 183° South  Level Estimated
Tue 02:24:00 AM 33.9319 126.5226 183° South  Level Estimated
Tue 02:25:00 AM 33.8283 126.5153 183° South  Level Estimated
Tue 02:26:00 AM 33.7609 126.5105 183° South  Level Estimated
Tue 02:27:00 AM 33.6936 126.5058 183° South  Level Estimated
Tue 02:28:00 AM 33.6262 126.5011 183° South  Level Estimated
Tue 02:29:00 AM 33.5588 126.4964 183° South  Level Estimated
Tue 02:30:00 AM 33.5113 126.4930 183° South  Level Estimated
Tue 02:31:00 AM 33.5113 126.4930 203° Southwest  Level Estimated
Tue 02:32:00 AM 33.5113 126.4930 203° Southwest  Level Estimated
Tue 02:33:00 AM 33.5113 126.4930 203° Southwest  Level Estimated
Tue 02:34:00 AM 33.5113 126.4930 203° Southwest  Level Estimated
Tue 02:35:00 AM 33.5113 126.4930 203° Southwest  Level Estimated
Tue 02:36:00 AM 33.5113 126.4930 203° Southwest  Level Estimated
Tue 02:37:00 AM 33.5113 126.4930 203° Southwest  Level Estimated
Tue 02:38:00 AM 33.5113 126.4930 203° Southwest  Level Estimated
Tue 02:39:00 AM 33.5113 126.4930 203° Southwest  Level Estimated
Tue 02:40:00 AM 33.5113 126.4930 203° Southwest  Level Estimated
Tue 02:41:00 AM 33.5113 126.4930 203° Southwest  Level Estimated
Tue 02:42:00 AM 33.5113 126.4930 203° Southwest  Level Estimated
Tue 02:43:00 AM 33.5113 126.4930 203° Southwest  Level Estimated
Tue 02:44:00 AM 33.5113 126.4930 203° Southwest  Level Estimated
Tue 02:45:00 AM 33.5113 126.4930 203° Southwest  Level Estimated
Tue 02:46:00 AM 33.5113 126.4930 203° Southwest  Level Estimated
Tue 02:47:00 AM 33.5113 126.4930 203° Southwest  Level Estimated
Tue 02:48:00 AM 33.5113 126.4930 203° Southwest  Level Estimated
Tue 02:49:00 AM 33.5113 126.4930 203° Southwest  Level Estimated
Tue 02:50:00 AM 33.5113 126.4930 203° Southwest  Level Estimated

Login

Don't have an account? Register now (free) for customized features, flight alerts, and more!